createdAt,value
2018-07-25T00:02:05.859Z,5.65
2018-07-25T00:04:36.640Z,4.78
2018-07-25T00:07:06.252Z,5.35
2018-07-25T00:09:36.479Z,5.60
2018-07-25T00:12:06.096Z,5.70
2018-07-25T00:14:35.937Z,5.92
2018-07-25T00:17:06.252Z,6.10
2018-07-25T00:19:36.737Z,5.53
2018-07-25T00:22:06.881Z,5.03
2018-07-25T00:24:38.558Z,5.50
2018-07-25T00:27:08.679Z,5.45
2018-07-25T00:29:39.680Z,5.50
2018-07-25T00:32:09.293Z,5.78
2018-07-25T00:34:39.470Z,5.28
2018-07-25T00:37:10.239Z,5.60
2018-07-25T00:39:40.258Z,5.50
2018-07-25T00:42:10.982Z,5.50
2018-07-25T00:44:40.838Z,5.70
2018-07-25T00:47:11.499Z,5.45
2018-07-25T00:49:42.199Z,5.42
2018-07-25T00:52:12.661Z,5.75
2018-07-25T00:54:43.953Z,5.22
2018-07-25T00:57:14.663Z,5.10
2018-07-25T00:59:45.377Z,6.08
2018-07-25T01:02:15.785Z,4.85
2018-07-25T01:04:46.174Z,5.60
2018-07-25T01:07:16.579Z,5.42
2018-07-25T01:09:46.899Z,5.90
2018-07-25T01:12:17.082Z,5.28
2018-07-25T01:14:47.781Z,5.65
2018-07-25T01:17:17.864Z,5.28
2018-07-25T01:19:47.898Z,5.97
2018-07-25T01:22:18.338Z,5.45
2018-07-25T01:24:49.078Z,5.92
2018-07-25T01:27:18.723Z,6.15
2018-07-25T01:29:49.599Z,5.30
2018-07-25T01:32:19.943Z,6.00
2018-07-25T01:34:50.339Z,5.28
2018-07-25T01:37:20.104Z,5.10
2018-07-25T01:39:51.199Z,5.35
2018-07-25T01:42:21.548Z,5.12
2018-07-25T01:44:52.254Z,5.37
2018-07-25T01:47:22.258Z,5.15
2018-07-25T01:49:51.688Z,5.65
2018-07-25T01:52:22.178Z,5.35
2018-07-25T01:54:53.538Z,4.70
2018-07-25T01:57:23.214Z,5.53
2018-07-25T01:59:53.047Z,5.10
2018-07-25T02:02:23.459Z,5.30
2018-07-25T02:04:53.279Z,6.12
2018-07-25T02:07:23.943Z,5.05
2018-07-25T02:09:53.933Z,5.08
2018-07-25T02:12:24.735Z,5.40
2018-07-25T02:14:55.137Z,5.17
2018-07-25T02:17:24.884Z,4.25
2018-07-25T02:19:54.572Z,4.78
2018-07-25T02:22:25.388Z,4.72
2018-07-25T02:24:55.783Z,4.95
2018-07-25T02:27:26.174Z,4.80
2018-07-25T02:29:56.579Z,5.15
2018-07-25T02:32:26.980Z,4.30
2018-07-25T02:34:56.967Z,4.47
2018-07-25T02:37:26.617Z,5.00
2018-07-25T02:39:56.903Z,5.25
2018-07-25T02:42:26.549Z,4.60
2018-07-25T02:44:57.701Z,4.35
2018-07-25T02:47:28.740Z,4.40
2018-07-25T02:49:59.468Z,4.33
2018-07-25T02:52:31.469Z,4.90
2018-07-25T02:55:01.201Z,4.60
2018-07-25T02:57:30.884Z,4.62
2018-07-25T03:00:00.723Z,4.40
2018-07-25T03:02:30.092Z,4.65
2018-07-25T03:05:00.579Z,4.20
2018-07-25T03:07:31.623Z,4.37
2018-07-25T03:10:02.721Z,4.10
2018-07-25T03:12:33.378Z,4.20
2018-07-25T03:15:03.794Z,4.67
2018-07-25T03:17:35.519Z,4.05
2018-07-25T03:20:05.762Z,4.25
2018-07-25T03:22:35.208Z,4.20
2018-07-25T03:25:04.973Z,4.70
2018-07-25T03:27:34.412Z,4.53
2018-07-25T03:30:05.227Z,4.72
2018-07-25T03:32:34.683Z,4.30
2018-07-25T03:35:05.118Z,4.37
2018-07-25T03:37:34.908Z,4.80
2018-07-25T03:40:04.170Z,4.50
2018-07-25T03:42:34.246Z,4.78
2018-07-25T03:45:04.791Z,4.40
2018-07-25T03:47:34.413Z,4.90
2018-07-25T03:50:04.321Z,5.35
2018-07-25T03:52:34.396Z,4.67
2018-07-25T03:55:05.091Z,4.72
2018-07-25T03:57:35.131Z,4.70
2018-07-25T04:00:05.080Z,4.53
2018-07-25T04:02:34.589Z,5.22
2018-07-25T04:05:04.326Z,5.83
2018-07-25T04:07:33.600Z,5.03
2018-07-25T04:10:03.953Z,4.72
2018-07-25T04:12:33.923Z,4.92
2018-07-25T04:15:04.886Z,4.45
2018-07-25T04:17:49.538Z,4.85
2018-07-25T04:20:20.975Z,4.75
2018-07-25T04:22:50.983Z,5.37
2018-07-25T04:25:20.641Z,4.85
2018-07-25T04:27:50.423Z,5.00
2018-07-25T04:30:20.909Z,5.03
2018-07-25T04:32:50.634Z,4.85
2018-07-25T04:35:20.642Z,4.90
2018-07-25T04:37:50.151Z,5.10
2018-07-25T04:40:20.169Z,5.08
2018-07-25T04:42:49.972Z,4.72
2018-07-25T04:45:20.010Z,5.50
2018-07-25T04:47:49.617Z,5.15
2018-07-25T04:50:20.588Z,5.25
2018-07-25T04:52:50.082Z,6.08
2018-07-25T04:55:20.042Z,5.62
2018-07-25T04:57:49.772Z,5.45
2018-07-25T05:00:20.269Z,5.45
2018-07-25T05:02:50.731Z,5.75
2018-07-25T05:05:21.073Z,5.67
2018-07-25T05:07:50.753Z,5.65
2018-07-25T05:10:20.962Z,5.40
2018-07-25T05:12:50.879Z,5.62
2018-07-25T05:15:20.725Z,5.25
2018-07-25T05:17:51.153Z,5.90
2018-07-25T05:20:21.131Z,5.47
2018-07-25T05:22:50.993Z,5.60
2018-07-25T05:25:21.119Z,5.20
2018-07-25T05:27:51.363Z,5.50
2018-07-25T05:30:20.915Z,5.35
2018-07-25T05:32:51.617Z,5.35
2018-07-25T05:35:21.644Z,9.00
2018-07-25T05:37:52.104Z,5.50
2018-07-25T05:40:22.884Z,5.00
2018-07-25T05:42:52.492Z,4.95
2018-07-25T05:45:22.670Z,5.33
2018-07-25T05:47:53.386Z,4.80
2018-07-25T05:50:24.428Z,4.22
2018-07-25T05:52:54.108Z,5.50
2018-07-25T05:55:24.586Z,5.10
2018-07-25T05:57:54.315Z,4.78
2018-07-25T06:00:25.389Z,4.92
2018-07-25T06:02:56.175Z,5.15
2018-07-25T06:05:26.509Z,5.75
2018-07-25T06:07:56.914Z,5.10
2018-07-25T06:10:27.362Z,5.70
2018-07-25T06:12:58.471Z,5.97
2018-07-25T06:15:29.764Z,5.70
2018-07-25T06:17:59.786Z,4.92
2018-07-25T06:20:30.548Z,5.50
2018-07-25T06:23:01.224Z,4.90
2018-07-25T06:25:31.636Z,5.47
2018-07-25T06:28:02.077Z,5.97
2018-07-25T06:30:32.754Z,5.42
2018-07-25T06:33:03.454Z,5.22
2018-07-25T06:35:34.568Z,5.37
2018-07-25T06:38:05.330Z,5.08
2018-07-25T06:40:34.887Z,5.67
2018-07-25T06:43:05.721Z,5.05
2018-07-25T06:45:36.427Z,5.60
2018-07-25T06:48:07.483Z,5.28
2018-07-25T06:50:38.237Z,4.87
2018-07-25T06:53:09.224Z,5.25
2018-07-25T06:55:39.644Z,5.05
2018-07-25T06:58:10.335Z,5.42
2018-07-25T07:00:41.072Z,5.30
2018-07-25T07:03:11.101Z,5.03
2018-07-25T07:05:40.818Z,5.12
2018-07-25T07:08:11.027Z,4.45
2018-07-25T07:10:41.382Z,4.45
2018-07-25T07:13:11.553Z,5.25
2018-07-25T07:15:42.833Z,4.67
2018-07-25T07:18:13.248Z,5.30
2018-07-25T07:20:43.226Z,5.70
2018-07-25T07:23:14.080Z,4.97
2018-07-25T07:25:44.517Z,4.87
2018-07-25T07:28:16.165Z,5.80
2018-07-25T07:30:46.091Z,5.22
2018-07-25T07:33:16.968Z,5.55
2018-07-25T07:35:47.214Z,6.10
2018-07-25T07:38:17.712Z,5.85
2018-07-25T07:40:48.091Z,6.30
2018-07-25T07:43:18.865Z,5.75
2018-07-25T07:45:48.530Z,5.58
2018-07-25T07:48:18.403Z,7.87
2018-07-25T07:50:49.054Z,5.42
2018-07-25T07:53:19.211Z,5.58
2018-07-25T07:55:49.555Z,6.00
2018-07-25T07:58:19.317Z,6.17
2018-07-25T08:00:50.029Z,6.25
2018-07-25T08:03:21.844Z,6.25
2018-07-25T08:05:52.942Z,5.70
2018-07-25T08:08:22.748Z,5.87
2018-07-25T08:10:54.560Z,6.47
2018-07-25T08:13:24.963Z,7.08
2018-07-25T08:15:55.921Z,7.15
2018-07-25T08:18:25.315Z,7.00
2018-07-25T08:20:56.175Z,6.78
2018-07-25T08:23:26.826Z,6.60
2018-07-25T08:25:57.603Z,7.35
2018-07-25T08:28:28.598Z,6.40
2018-07-25T08:30:59.685Z,8.75
2018-07-25T08:33:30.033Z,6.83
2018-07-25T08:36:00.434Z,7.15
2018-07-25T08:38:44.269Z,7.67
2018-07-25T08:41:14.765Z,8.25
2018-07-25T08:43:45.123Z,6.90
2018-07-25T08:46:16.045Z,7.70
2018-07-25T08:48:46.526Z,8.28
2018-07-25T08:51:17.566Z,6.72
2018-07-25T08:53:47.556Z,7.67
2018-07-25T08:56:18.401Z,7.25
2018-07-25T08:58:47.789Z,6.78
2018-07-25T09:01:18.552Z,6.85
2018-07-25T09:03:49.281Z,7.22
2018-07-25T09:06:19.818Z,6.92
2018-07-25T09:08:50.085Z,6.58
2018-07-25T09:11:25.593Z,6.22
2018-07-25T09:13:56.144Z,6.55
2018-07-25T09:16:26.665Z,6.30
2018-07-25T09:18:57.400Z,7.00
2018-07-25T09:21:28.160Z,6.10
2018-07-25T09:23:58.824Z,6.05
2018-07-25T09:26:28.813Z,5.90
2018-07-25T09:28:58.847Z,5.55
2018-07-25T09:31:28.337Z,5.47
2018-07-25T09:33:58.455Z,4.92
2018-07-25T09:36:28.652Z,5.58
2018-07-25T09:38:57.951Z,5.25
2018-07-25T09:41:29.384Z,5.78
2018-07-25T09:43:59.363Z,6.95
2018-07-25T09:46:30.684Z,6.53
2018-07-25T09:49:00.523Z,4.90
2018-07-25T09:51:30.566Z,4.60
2018-07-25T09:54:00.608Z,4.83
2018-07-25T09:56:30.522Z,4.30
2018-07-25T09:59:00.949Z,4.12
2018-07-25T10:01:30.973Z,4.20
2018-07-25T10:04:00.333Z,4.62
2018-07-25T10:06:30.415Z,4.65
2018-07-25T10:09:01.299Z,4.03
2018-07-25T10:11:31.231Z,4.22
2018-07-25T10:14:01.246Z,4.45
2018-07-25T10:16:35.292Z,4.40
2018-07-25T10:19:05.807Z,4.10
2018-07-25T10:21:36.565Z,4.10
2018-07-25T10:24:05.825Z,5.72
2018-07-25T10:26:36.856Z,4.00
2018-07-25T10:29:06.960Z,4.72
2018-07-25T10:31:36.678Z,4.60
2018-07-25T10:34:06.746Z,4.22
2018-07-25T10:36:37.147Z,4.62
2018-07-25T10:39:08.591Z,4.42
2018-07-25T10:41:39.046Z,4.15
2018-07-25T10:44:08.984Z,4.20
2018-07-25T10:46:39.396Z,4.20
2018-07-25T10:49:09.609Z,4.08
2018-07-25T10:51:39.935Z,4.15
2018-07-25T10:54:11.049Z,4.35
2018-07-25T10:56:40.671Z,4.35
2018-07-25T10:59:10.570Z,3.75
2018-07-25T11:01:40.503Z,3.90
2018-07-25T11:04:10.262Z,3.83
2018-07-25T11:06:40.027Z,3.83
2018-07-25T11:09:11.528Z,3.90
2018-07-25T11:11:42.558Z,3.72
2018-07-25T11:14:13.544Z,3.87
2018-07-25T11:16:44.263Z,4.20
2018-07-25T11:19:14.792Z,3.83
2018-07-25T11:21:44.928Z,3.85
2018-07-25T11:24:14.423Z,3.67
2018-07-25T11:26:45.226Z,3.50
2018-07-25T11:29:15.279Z,3.83
2018-07-25T11:31:45.856Z,3.58
2018-07-25T11:34:16.252Z,3.60
2018-07-25T11:36:46.427Z,3.60
2018-07-25T11:39:16.775Z,3.35
2018-07-25T11:41:45.988Z,3.30
2018-07-25T11:44:15.767Z,3.17
2018-07-25T11:46:45.933Z,3.62
2018-07-25T11:49:15.012Z,3.35
2018-07-25T11:51:45.121Z,4.75
2018-07-25T11:54:15.117Z,3.40
2018-07-25T11:56:49.578Z,3.77
2018-07-25T11:59:19.592Z,3.75
2018-07-25T12:01:48.855Z,3.70
2018-07-25T12:04:18.337Z,3.40
2018-07-25T12:06:49.388Z,3.47
2018-07-25T12:09:20.111Z,3.67
2018-07-25T12:11:51.207Z,3.95
2018-07-25T12:14:21.121Z,3.33
2018-07-25T12:16:50.880Z,3.40
2018-07-25T12:19:20.333Z,3.25
2018-07-25T12:21:50.083Z,3.02
2018-07-25T12:24:20.585Z,3.58
2018-07-25T12:26:50.752Z,3.85
2018-07-25T12:29:21.071Z,3.52
2018-07-25T12:31:50.403Z,2.90
2018-07-25T12:34:20.906Z,3.05
2018-07-25T12:36:50.584Z,3.10
2018-07-25T12:39:21.434Z,2.98
2018-07-25T12:41:52.479Z,3.00
2018-07-25T12:44:22.413Z,3.10
2018-07-25T12:46:53.217Z,2.62
2018-07-25T12:49:23.612Z,3.30
2018-07-25T12:51:54.393Z,2.72
2018-07-25T12:54:24.329Z,3.20
2018-07-25T12:56:53.914Z,3.17
2018-07-25T12:59:23.848Z,2.80
2018-07-25T13:01:54.352Z,3.47
2018-07-25T13:04:25.394Z,2.95
2018-07-25T13:06:56.424Z,3.02
2018-07-25T13:09:26.553Z,3.10
2018-07-25T13:11:57.216Z,2.77
2018-07-25T13:14:28.215Z,3.37
2018-07-25T13:16:58.651Z,2.67
2018-07-25T13:19:29.058Z,3.30
2018-07-25T13:21:59.046Z,3.02
2018-07-25T13:24:28.808Z,2.92
2018-07-25T13:26:58.561Z,3.05
2018-07-25T13:29:28.736Z,2.40
2018-07-25T13:31:58.402Z,2.67
2018-07-25T13:34:28.891Z,2.70
2018-07-25T13:36:58.614Z,3.70
2018-07-25T13:39:28.116Z,3.75
2018-07-25T13:41:57.766Z,4.37
2018-07-25T13:44:28.258Z,2.67
2018-07-25T13:46:57.608Z,2.85
2018-07-25T13:49:28.427Z,2.62
2018-07-25T13:51:58.841Z,3.12
2018-07-25T13:54:28.806Z,3.02
2018-07-25T13:56:58.248Z,2.58
2018-07-25T13:59:29.378Z,2.90
2018-07-25T14:02:00.163Z,2.92
2018-07-25T14:04:31.146Z,3.20
2018-07-25T14:07:01.181Z,2.95
2018-07-25T14:09:30.676Z,2.95
2018-07-25T14:12:02.051Z,3.05
2018-07-25T14:14:32.737Z,2.85
2018-07-25T14:17:02.572Z,3.25
2018-07-25T14:19:32.510Z,2.95
2018-07-25T14:22:02.026Z,2.90
2018-07-25T14:24:31.771Z,3.27
2018-07-25T14:27:02.253Z,3.20
2018-07-25T14:29:32.712Z,3.15
2018-07-25T14:32:01.824Z,3.10
2018-07-25T14:34:30.995Z,3.02
2018-07-25T14:37:00.407Z,2.98
2018-07-25T14:39:31.365Z,2.80
2018-07-25T14:42:00.949Z,3.20
2018-07-25T14:44:30.314Z,2.85
2018-07-25T14:47:01.361Z,2.87
2018-07-25T14:49:31.217Z,3.17
2018-07-25T14:52:01.042Z,3.58
2018-07-25T14:54:30.442Z,2.60
2018-07-25T14:57:00.384Z,2.90
2018-07-25T14:59:29.768Z,3.40
2018-07-25T15:01:59.521Z,3.37
2018-07-25T15:04:30.242Z,3.25
2018-07-25T15:07:00.320Z,3.20
2018-07-25T15:09:30.850Z,2.98
2018-07-25T15:12:01.225Z,3.60
2018-07-25T15:14:31.092Z,2.92
2018-07-25T15:17:01.289Z,3.40
2018-07-25T15:19:30.921Z,2.85
2018-07-25T15:31:50.560Z,3.30
2018-07-25T15:34:21.601Z,2.90
2018-07-25T15:36:52.506Z,3.37
2018-07-25T15:39:23.223Z,2.83
2018-07-25T15:41:53.562Z,3.00
2018-07-25T15:44:24.478Z,2.90
2018-07-25T15:46:55.346Z,2.87
2018-07-25T15:49:25.601Z,2.75
2018-07-25T15:51:56.267Z,2.80
2018-07-25T15:54:25.629Z,2.62
2018-07-25T15:56:55.501Z,2.90
2018-07-25T15:59:26.239Z,3.50
2018-07-25T16:01:55.783Z,2.90
2018-07-25T16:04:26.819Z,3.40
2018-07-25T16:06:56.667Z,2.90
2018-07-25T16:09:26.238Z,3.22
2018-07-25T16:11:55.501Z,3.65
2018-07-25T16:14:25.746Z,3.42
2018-07-25T16:16:55.043Z,3.58
2018-07-25T16:19:24.139Z,3.10
2018-07-25T16:21:54.123Z,3.30
2018-07-25T16:24:23.400Z,3.42
2018-07-25T16:26:53.166Z,3.85
2018-07-25T16:29:22.361Z,3.70
2018-07-25T16:31:51.555Z,4.62
2018-07-25T16:34:21.275Z,3.83
2018-07-25T16:36:51.263Z,3.12
2018-07-25T16:39:21.520Z,3.25
2018-07-25T16:41:51.585Z,3.40
2018-07-25T16:44:20.716Z,3.80
2018-07-25T16:46:51.271Z,3.58
2018-07-25T16:49:20.859Z,3.10
2018-07-25T16:51:51.625Z,3.02
2018-07-25T16:54:22.510Z,3.10
2018-07-25T16:56:51.849Z,3.95
2018-07-25T16:59:22.816Z,3.60
2018-07-25T17:01:53.095Z,3.10
2018-07-25T17:04:22.130Z,3.55
2018-07-25T17:06:51.267Z,3.50
2018-07-25T17:09:20.524Z,3.47
2018-07-25T17:11:51.165Z,5.83
2018-07-25T17:14:20.383Z,3.70
2018-07-25T17:16:50.349Z,5.60
2018-07-25T17:19:19.722Z,4.10
2018-07-25T17:21:48.811Z,4.05
2018-07-25T17:24:18.428Z,3.40
2018-07-25T17:26:47.712Z,4.00
2018-07-25T17:29:17.884Z,3.85
2018-07-25T17:31:48.272Z,4.22
2018-07-25T17:34:17.547Z,3.90
2018-07-25T17:36:46.746Z,4.12
2018-07-25T17:39:18.134Z,4.00
2018-07-25T17:41:48.266Z,4.60
2018-07-25T17:44:19.090Z,4.60
2018-07-25T17:46:48.709Z,5.20
2018-07-25T17:49:19.467Z,4.30
2018-07-25T17:51:50.239Z,4.10
2018-07-25T17:54:19.942Z,4.70
2018-07-25T17:56:49.635Z,4.40
2018-07-25T17:59:19.847Z,4.75
2018-07-25T18:01:51.202Z,4.60
2018-07-25T18:04:21.144Z,5.00
2018-07-25T18:06:51.139Z,6.47
2018-07-25T18:09:20.835Z,4.53
2018-07-25T18:11:51.536Z,5.12
2018-07-25T18:14:21.354Z,4.80
2018-07-25T18:16:51.329Z,5.78
2018-07-25T18:19:20.983Z,5.47
2018-07-25T18:21:50.805Z,5.37
2018-07-25T18:24:20.322Z,5.20
2018-07-25T18:26:50.287Z,5.28
2018-07-25T18:29:20.791Z,5.85
2018-07-25T18:31:50.244Z,5.62
2018-07-25T18:34:20.642Z,6.05
2018-07-25T18:36:50.679Z,5.78
2018-07-25T18:39:20.482Z,5.67
2018-07-25T18:41:51.542Z,6.83
2018-07-25T18:44:21.075Z,5.75
2018-07-25T18:46:50.258Z,5.65
2018-07-25T18:49:20.481Z,6.17
2018-07-25T18:51:51.205Z,5.75
2018-07-25T18:54:20.662Z,6.05
2018-07-25T18:56:50.095Z,6.58
2018-07-25T18:59:20.428Z,6.30
2018-07-25T19:01:50.549Z,6.62
2018-07-25T19:04:21.600Z,6.47
2018-07-25T19:06:52.371Z,6.47
2018-07-25T19:09:22.007Z,6.35
2018-07-25T19:11:51.515Z,6.58
2018-07-25T19:14:25.999Z,6.30
2018-07-25T19:16:56.706Z,6.60
2018-07-25T19:19:26.111Z,6.97
2018-07-25T19:21:56.331Z,7.37
2018-07-25T19:24:25.761Z,7.25
2018-07-25T19:26:56.421Z,6.58
2018-07-25T19:29:26.606Z,6.90
2018-07-25T19:31:56.030Z,7.22
2018-07-25T19:34:26.908Z,7.58
2018-07-25T19:36:56.553Z,6.87
2018-07-25T19:39:30.480Z,7.25
2018-07-25T19:42:00.047Z,7.37
2018-07-25T19:44:30.196Z,7.92
2018-07-25T19:47:00.907Z,7.20
2018-07-25T19:49:30.679Z,7.55
2018-07-25T19:52:01.024Z,7.37
2018-07-25T19:54:30.540Z,7.60
2018-07-25T19:56:59.683Z,7.62
2018-07-25T19:59:30.722Z,6.95
2018-07-25T20:02:00.335Z,7.62
2018-07-25T20:04:30.105Z,7.42
2018-07-25T20:07:00.819Z,8.30
2018-07-25T20:09:30.568Z,7.97
2018-07-25T20:12:00.343Z,7.75
2018-07-25T20:14:35.404Z,7.65
2018-07-25T20:17:06.402Z,8.63
2018-07-25T20:19:35.570Z,7.80
2018-07-25T20:22:06.101Z,7.58
2018-07-25T20:24:35.776Z,8.10
2018-07-25T20:27:05.098Z,7.92
2018-07-25T20:29:34.942Z,8.00
2018-07-25T20:32:04.498Z,8.25
2018-07-25T20:34:34.657Z,8.45
2018-07-25T20:37:03.561Z,8.03
2018-07-25T20:39:33.362Z,8.03
2018-07-25T20:42:02.886Z,7.97
2018-07-25T20:44:32.551Z,7.70
2018-07-25T20:47:03.841Z,8.28
2018-07-25T20:49:34.183Z,7.83
2018-07-25T20:52:04.642Z,8.13
2018-07-25T20:54:34.988Z,7.85
2018-07-25T20:57:04.479Z,8.40
2018-07-25T20:59:34.882Z,8.03
2018-07-25T21:02:04.567Z,8.40
2018-07-25T21:04:34.987Z,8.88
2018-07-25T21:07:04.211Z,8.78
2018-07-25T21:09:33.817Z,8.05
2018-07-25T21:12:04.273Z,8.08
2018-07-25T21:14:33.525Z,7.90
2018-07-25T21:17:03.270Z,8.00
2018-07-25T21:19:33.506Z,7.70
2018-07-25T21:22:02.904Z,7.67
2018-07-25T21:24:32.491Z,8.55
2018-07-25T21:27:02.571Z,8.75
2018-07-25T21:29:32.195Z,8.73
2018-07-25T21:32:02.105Z,9.50
2018-07-25T21:34:32.184Z,8.65
2018-07-25T21:37:02.130Z,9.18
2018-07-25T21:39:31.777Z,8.00
2018-07-25T21:42:01.885Z,8.00
2018-07-25T21:44:32.108Z,8.05
2018-07-25T21:47:01.439Z,8.53
2018-07-25T21:49:31.495Z,8.38
2018-07-25T21:52:01.459Z,8.73
2018-07-25T21:54:30.872Z,8.08
2018-07-25T21:57:00.204Z,8.30
2018-07-25T21:59:30.416Z,8.40
2018-07-25T22:02:00.810Z,7.87
2018-07-25T22:04:30.078Z,9.20
2018-07-25T22:06:59.309Z,8.18
2018-07-25T22:09:28.644Z,8.33
2018-07-25T22:11:58.698Z,10.82
2018-07-25T22:14:28.423Z,8.15
2018-07-25T22:17:00.580Z,8.23
2018-07-25T22:19:30.259Z,8.00
2018-07-25T22:22:00.323Z,8.33
2018-07-25T22:24:29.365Z,7.95
2018-07-25T22:27:01.130Z,8.20
2018-07-25T22:29:31.102Z,8.20
2018-07-25T22:32:00.475Z,8.23
2018-07-25T22:34:29.775Z,7.55
2018-07-25T22:37:00.012Z,8.05
2018-07-25T22:39:29.386Z,7.72
2018-07-25T22:41:58.557Z,7.80
2018-07-25T22:44:29.050Z,7.58
2018-07-25T22:47:01.032Z,8.73
2018-07-25T22:49:30.400Z,8.03
2018-07-25T22:52:00.097Z,7.83
2018-07-25T22:54:30.423Z,7.50
2018-07-25T22:56:59.678Z,7.70
2018-07-25T22:59:29.627Z,8.45
2018-07-25T23:02:00.296Z,8.00
2018-07-25T23:04:30.305Z,8.50
2018-07-25T23:07:00.283Z,7.50
2018-07-25T23:09:30.578Z,8.00
2018-07-25T23:12:00.475Z,7.65
2018-07-25T23:14:29.710Z,7.65
2018-07-25T23:16:59.928Z,7.58
2018-07-25T23:19:29.733Z,7.78
2018-07-25T23:22:00.155Z,7.50
2018-07-25T23:24:30.099Z,7.45
2018-07-25T23:27:00.587Z,8.18
2018-07-25T23:29:30.081Z,8.00
2018-07-25T23:32:00.744Z,7.90
2018-07-25T23:34:30.152Z,7.40
2018-07-25T23:37:00.049Z,7.95
2018-07-25T23:39:30.655Z,8.25
2018-07-25T23:42:00.328Z,7.67
2018-07-25T23:44:30.242Z,7.15
2018-07-25T23:47:00.568Z,6.62
2018-07-25T23:49:30.565Z,7.20
2018-07-25T23:52:01.117Z,6.97
2018-07-25T23:54:30.786Z,7.65
2018-07-25T23:57:00.483Z,7.45
2018-07-25T23:59:30.093Z,7.83
